createdAt,value
2022-09-12T00:14:45.378Z,0.00
2022-09-12T00:20:18.513Z,0.00
2022-09-12T00:25:49.793Z,0.00
2022-09-12T00:36:50.606Z,0.00
2022-09-12T00:42:21.997Z,0.00
2022-09-12T00:47:53.600Z,0.00
2022-09-12T00:53:25.002Z,1.00
2022-09-12T00:58:56.520Z,0.00
2022-09-12T01:04:28.010Z,0.00
2022-09-12T01:09:59.362Z,0.00
2022-09-12T01:15:30.837Z,0.00
2022-09-12T01:21:02.635Z,0.00
2022-09-12T01:26:33.905Z,0.00
2022-09-12T01:32:05.715Z,1.00
2022-09-12T01:37:37.277Z,0.00
2022-09-12T01:43:08.647Z,0.00
2022-09-12T01:48:40.158Z,0.00
2022-09-12T01:54:11.953Z,0.00
2022-09-12T01:59:43.442Z,0.00
2022-09-12T02:05:14.929Z,0.00
2022-09-12T02:10:46.181Z,0.00
2022-09-12T02:16:18.012Z,0.00
2022-09-12T02:21:49.419Z,0.00
2022-09-12T02:27:21.017Z,0.00
2022-09-12T02:32:52.381Z,0.00
2022-09-12T02:38:23.855Z,0.00
2022-09-12T02:43:55.221Z,0.00
2022-09-12T02:49:26.565Z,0.00
2022-09-12T02:54:58.286Z,1.00
2022-09-12T03:00:29.713Z,0.00
2022-09-12T03:06:00.988Z,0.00
2022-09-12T03:11:32.358Z,0.00
2022-09-12T03:17:03.639Z,0.00
2022-09-12T03:22:35.147Z,0.00
2022-09-12T03:33:35.919Z,1.00
2022-09-12T03:39:07.187Z,1.00
2022-09-12T03:44:38.635Z,1.00
2022-09-12T03:50:09.995Z,0.00
2022-09-12T03:55:41.772Z,0.00
2022-09-12T04:01:13.178Z,1.00
2022-09-12T04:06:44.495Z,3.00
2022-09-12T04:17:45.357Z,29.00
2022-09-12T04:23:16.825Z,76.00
2022-09-12T04:28:48.473Z,172.00
2022-09-12T04:34:20.017Z,326.00
2022-09-12T04:39:51.741Z,595.00
2022-09-12T04:45:23.299Z,940.00
2022-09-12T04:50:54.990Z,1531.00
2022-09-12T05:01:55.816Z,14713.00
2022-09-12T05:07:27.506Z,22734.00
2022-09-12T05:12:58.888Z,29477.00
2022-09-12T05:18:30.576Z,34808.00
2022-09-12T05:24:01.981Z,37889.00
2022-09-12T05:29:33.293Z,37889.00
2022-09-12T05:35:05.000Z,37889.00
2022-09-12T05:40:36.874Z,37889.00
2022-09-12T05:46:08.607Z,37889.00
2022-09-12T05:51:40.397Z,37889.00
2022-09-12T05:57:12.083Z,37889.00
2022-09-12T06:02:43.572Z,37889.00
2022-09-12T06:08:15.245Z,37889.00
2022-09-12T06:13:46.682Z,37889.00
2022-09-12T06:19:18.364Z,37889.00
2022-09-12T06:24:50.817Z,37889.00
2022-09-12T06:30:25.356Z,37889.00
2022-09-12T06:35:53.708Z,37889.00
2022-09-12T06:41:25.112Z,37889.00
2022-09-12T06:46:56.466Z,37889.00
2022-09-12T06:52:28.251Z,37889.00
2022-09-12T06:54:39.907Z,37889.00
2022-09-12T07:00:11.103Z,37889.00
2022-09-12T07:05:42.519Z,37889.00
2022-09-12T07:11:13.747Z,37889.00
2022-09-12T07:16:45.280Z,37889.00
2022-09-12T07:27:50.595Z,37889.00
2022-09-12T07:33:18.953Z,37889.00
2022-09-12T07:38:52.105Z,37889.00
2022-09-12T07:44:22.125Z,37889.00
2022-09-12T07:49:53.713Z,37889.00
2022-09-12T07:55:25.126Z,37889.00
2022-09-12T08:00:56.927Z,37889.00
2022-09-12T08:06:28.906Z,37889.00
2022-09-12T08:12:00.502Z,37889.00
2022-09-12T08:17:31.787Z,37889.00
2022-09-12T08:23:03.051Z,37889.00
2022-09-12T08:28:34.804Z,37889.00
2022-09-12T08:34:06.203Z,37889.00
2022-09-12T08:45:07.214Z,37889.00
2022-09-12T08:50:38.761Z,15572.00
2022-09-12T08:56:10.214Z,14547.00
2022-09-12T09:01:41.966Z,14017.00
2022-09-12T09:07:13.750Z,13861.00
2022-09-12T09:12:45.478Z,13546.00
2022-09-12T09:18:16.733Z,13206.00
2022-09-12T09:23:48.068Z,13019.00
2022-09-12T09:29:19.297Z,12659.00
2022-09-12T09:34:50.612Z,12630.00
2022-09-12T09:40:22.271Z,12286.00
2022-09-12T09:45:53.660Z,12043.00
2022-09-12T09:51:25.090Z,11726.00
2022-09-12T09:56:56.385Z,11630.00
2022-09-12T10:02:27.672Z,11626.00
2022-09-12T10:07:59.278Z,11477.00
2022-09-12T10:13:31.031Z,11467.00
2022-09-12T10:19:02.795Z,11386.00
2022-09-12T10:24:33.956Z,11323.00
2022-09-12T10:30:05.346Z,11285.00
2022-09-12T10:35:36.678Z,10817.00
2022-09-12T10:41:08.380Z,11224.00
2022-09-12T10:46:39.761Z,11226.00
2022-09-12T10:52:11.185Z,11314.00
2022-09-12T10:57:42.455Z,11239.00
2022-09-12T11:03:13.824Z,11039.00
2022-09-12T11:08:45.482Z,11149.00
2022-09-12T11:14:16.707Z,11231.00
2022-09-12T11:19:48.014Z,10996.00
2022-09-12T11:25:19.501Z,11258.00
2022-09-12T11:30:50.807Z,11318.00
2022-09-12T11:36:22.020Z,11117.00
2022-09-12T11:41:53.367Z,11187.00
2022-09-12T11:47:24.704Z,11385.00
2022-09-12T12:03:55.350Z,11613.00
2022-09-12T12:09:26.972Z,12015.00
2022-09-12T12:17:19.115Z,12086.00
2022-09-12T12:22:50.789Z,12951.00
2022-09-12T12:28:22.739Z,12353.00
2022-09-12T12:33:54.238Z,13233.00
2022-09-12T12:44:59.277Z,14928.00
2022-09-12T12:50:30.663Z,15075.00
2022-09-12T12:56:02.538Z,16588.00
2022-09-12T13:01:34.286Z,16796.00
2022-09-12T13:07:08.131Z,14529.00
2022-09-12T13:12:37.235Z,18326.00
2022-09-12T13:18:08.803Z,18824.00
2022-09-12T13:23:40.550Z,17318.00
2022-09-12T13:29:12.264Z,18944.00
2022-09-12T13:34:43.851Z,17679.00
2022-09-12T13:40:15.202Z,18066.00
2022-09-12T13:45:47.230Z,17435.00
2022-09-12T13:51:18.927Z,17294.00
2022-09-12T13:56:50.607Z,16733.00
2022-09-12T14:02:21.918Z,15641.00
2022-09-12T14:07:53.279Z,14920.00
2022-09-12T14:13:24.814Z,15597.00
2022-09-12T14:18:56.111Z,15284.00
2022-09-12T14:24:27.588Z,13620.00
2022-09-12T14:29:58.731Z,13373.00
2022-09-12T14:37:50.346Z,12825.00
2022-09-12T14:43:21.149Z,12164.00
2022-09-12T14:48:52.415Z,11184.00
2022-09-12T14:54:23.891Z,11209.00
2022-09-12T14:59:55.284Z,11468.00
2022-09-12T15:05:27.197Z,12231.00
2022-09-12T15:10:58.818Z,13657.00
2022-09-12T15:16:30.468Z,13702.00
2022-09-12T15:22:01.632Z,13222.00
2022-09-12T15:27:33.042Z,15781.00
2022-09-12T15:33:04.614Z,15166.00
2022-09-12T15:38:36.360Z,13407.00
2022-09-12T15:44:08.184Z,14955.00
2022-09-12T15:49:39.825Z,14165.00
2022-09-12T15:55:11.127Z,13039.00
2022-09-12T16:00:42.522Z,12059.00
2022-09-12T16:06:13.997Z,10777.00
2022-09-12T16:11:45.750Z,9457.00
2022-09-12T16:17:17.518Z,8390.00
2022-09-12T16:22:49.311Z,5769.00
2022-09-12T16:28:20.783Z,6737.00
2022-09-12T16:33:52.331Z,6120.00
2022-09-12T16:39:23.870Z,5470.00
2022-09-12T16:44:56.013Z,4865.00
2022-09-12T16:50:28.028Z,4312.00
2022-09-12T16:55:59.745Z,3821.00
2022-09-12T17:01:31.400Z,3330.00
2022-09-12T17:07:02.768Z,2764.00
2022-09-12T17:12:34.259Z,2312.00
2022-09-12T17:18:05.897Z,1644.00
2022-09-12T17:23:37.324Z,1124.00
2022-09-12T17:29:08.819Z,767.00
2022-09-12T17:34:40.333Z,522.00
2022-09-12T17:40:12.047Z,444.00
2022-09-12T17:45:44.043Z,153.00
2022-09-12T17:51:15.631Z,48.00
2022-09-12T17:56:47.326Z,12.00
2022-09-12T18:02:18.966Z,3.00
2022-09-12T18:07:50.145Z,2.00
2022-09-12T18:13:22.253Z,1.00
2022-09-12T18:18:52.677Z,1.00
2022-09-12T18:24:23.953Z,0.00
2022-09-12T18:30:17.520Z,2.00
2022-09-12T18:35:27.085Z,1.00
2022-09-12T18:40:58.760Z,0.00
2022-09-12T18:46:30.836Z,1.00
2022-09-12T18:52:02.044Z,0.00
2022-09-12T18:57:33.550Z,1.00
2022-09-12T19:05:26.296Z,3.00
2022-09-12T19:10:58.703Z,3.00
2022-09-12T19:16:30.026Z,4.00
2022-09-12T19:22:01.316Z,3.00
2022-09-12T19:27:32.746Z,3.00
2022-09-12T19:33:04.093Z,4.00
2022-09-12T19:44:08.222Z,0.00
2022-09-12T19:57:31.290Z,0.00
2022-09-12T20:03:02.888Z,1.00
2022-09-12T20:14:05.987Z,1.00
2022-09-12T20:19:37.596Z,1.00
2022-09-12T20:25:08.925Z,1.00
2022-09-12T20:30:40.344Z,1.00
2022-09-12T20:36:11.622Z,0.00
2022-09-12T20:41:43.433Z,1.00
2022-09-12T20:47:15.038Z,1.00
2022-09-12T20:52:46.689Z,1.00
2022-09-12T20:58:18.303Z,0.00
2022-09-12T21:03:50.002Z,0.00
2022-09-12T21:09:21.883Z,0.00
2022-09-12T21:14:53.645Z,0.00
2022-09-12T21:20:25.348Z,1.00
2022-09-12T21:25:57.180Z,1.00
2022-09-12T21:31:28.917Z,0.00
2022-09-12T21:37:02.460Z,0.00
2022-09-12T21:42:33.949Z,0.00
2022-09-12T21:48:05.718Z,0.00
2022-09-12T21:53:37.360Z,1.00
2022-09-12T21:59:08.832Z,0.00
2022-09-12T22:04:40.534Z,0.00
2022-09-12T22:10:12.401Z,0.00
2022-09-12T22:15:43.889Z,0.00
2022-09-12T22:21:15.153Z,0.00
2022-09-12T22:26:46.942Z,0.00
2022-09-12T22:37:50.349Z,0.00
2022-09-12T22:43:21.687Z,0.00
2022-09-12T22:48:53.162Z,0.00
2022-09-12T22:54:25.225Z,0.00
2022-09-12T22:59:56.452Z,0.00
2022-09-12T23:05:27.951Z,1.00
2022-09-12T23:10:59.479Z,0.00
2022-09-12T23:16:30.981Z,0.00
2022-09-12T23:22:02.295Z,0.00
2022-09-12T23:27:33.482Z,0.00
2022-09-12T23:33:05.227Z,0.00
2022-09-12T23:38:36.734Z,0.00
2022-09-12T23:44:07.876Z,0.00
2022-09-12T23:49:39.448Z,0.00
2022-09-12T23:55:11.380Z,0.00
